Terminal Aerodrome Forecast
Issued by NWS Burlington, VT

Home | Current Version | Previous Version | Text Only | Print | Product List | Glossary On
Versions: 1 2 3 4 5 6 7 8 9 10 11 12 13 14 15 16 17 18 19 20 21 22 23
000
FTUS41 KBTV 231947 AAB
TAFBTV
TAF AMD
KBTV 231947Z 2320/2418 35014G20KT 6SM -RA BR OVC006
      TEMPO 2320/2324 5SM -RA BR OVC008
     FM240000 35014G20KT 6SM -RA BR OVC007
     FM241600 34010KT P6SM OVC020=

USA.gov is the U.S. government's official web portal to all federal, state and local government web resources and services.